sensor_id;sensor_type;location;lat;lon;timestamp;P1;durP1;ratioP1;P2;durP2;ratioP2
13927;SDS011;7036;50.834;4.718;2023-05-19T00:00:19;2.88;;;2.17;;
13927;SDS011;7036;50.834;4.718;2023-05-19T00:02:46;4.25;;;2.05;;
13927;SDS011;7036;50.834;4.718;2023-05-19T00:05:14;3.13;;;1.80;;
13927;SDS011;7036;50.834;4.718;2023-05-19T00:07:41;2.45;;;1.83;;
13927;SDS011;7036;50.834;4.718;2023-05-19T00:10:09;4.53;;;2.47;;
13927;SDS011;7036;50.834;4.718;2023-05-19T00:12:37;2.92;;;1.83;;
13927;SDS011;7036;50.834;4.718;2023-05-19T00:15:05;2.92;;;2.05;;
13927;SDS011;7036;50.834;4.718;2023-05-19T00:17:33;3.85;;;2.40;;
13927;SDS011;7036;50.834;4.718;2023-05-19T00:20:01;2.60;;;2.00;;
13927;SDS011;7036;50.834;4.718;2023-05-19T00:22:28;2.58;;;2.10;;
13927;SDS011;7036;50.834;4.718;2023-05-19T00:24:57;2.15;;;1.88;;
13927;SDS011;7036;50.834;4.718;2023-05-19T00:27:25;2.80;;;2.17;;
13927;SDS011;7036;50.834;4.718;2023-05-19T00:29:52;4.15;;;2.40;;
13927;SDS011;7036;50.834;4.718;2023-05-19T00:32:20;3.67;;;2.50;;
13927;SDS011;7036;50.834;4.718;2023-05-19T00:34:47;3.80;;;2.15;;
13927;SDS011;7036;50.834;4.718;2023-05-19T00:37:15;3.10;;;2.13;;
13927;SDS011;7036;50.834;4.718;2023-05-19T00:39:43;3.92;;;2.33;;
13927;SDS011;7036;50.834;4.718;2023-05-19T00:42:10;3.53;;;1.60;;
13927;SDS011;7036;50.834;4.718;2023-05-19T00:44:39;3.88;;;2.13;;
13927;SDS011;7036;50.834;4.718;2023-05-19T00:47:06;2.78;;;2.08;;
13927;SDS011;7036;50.834;4.718;2023-05-19T00:49:34;3.53;;;2.22;;
13927;SDS011;7036;50.834;4.718;2023-05-19T00:52:01;4.38;;;2.45;;
13927;SDS011;7036;50.834;4.718;2023-05-19T00:54:29;2.35;;;1.92;;
13927;SDS011;7036;50.834;4.718;2023-05-19T00:56:56;2.20;;;2.00;;
13927;SDS011;7036;50.834;4.718;2023-05-19T00:59:23;2.33;;;2.10;;
13927;SDS011;7036;50.834;4.718;2023-05-19T01:01:51;2.97;;;2.08;;
13927;SDS011;7036;50.834;4.718;2023-05-19T01:04:20;3.10;;;2.05;;
13927;SDS011;7036;50.834;4.718;2023-05-19T01:06:47;3.20;;;2.25;;
13927;SDS011;7036;50.834;4.718;2023-05-19T01:09:20;2.50;;;2.10;;
13927;SDS011;7036;50.834;4.718;2023-05-19T01:11:51;2.22;;;1.92;;
13927;SDS011;7036;50.834;4.718;2023-05-19T01:14:18;4.35;;;2.17;;
13927;SDS011;7036;50.834;4.718;2023-05-19T01:16:47;2.88;;;2.33;;
13927;SDS011;7036;50.834;4.718;2023-05-19T01:19:26;3.63;;;2.60;;
13927;SDS011;7036;50.834;4.718;2023-05-19T01:32:54;3.72;;;2.17;;
13927;SDS011;7036;50.834;4.718;2023-05-19T01:35:24;2.53;;;1.98;;
13927;SDS011;7036;50.834;4.718;2023-05-19T01:37:56;2.70;;;2.25;;
13927;SDS011;7036;50.834;4.718;2023-05-19T01:40:25;3.97;;;2.55;;
13927;SDS011;7036;50.834;4.718;2023-05-19T01:42:53;3.17;;;2.45;;
13927;SDS011;7036;50.834;4.718;2023-05-19T01:45:21;4.20;;;2.42;;
13927;SDS011;7036;50.834;4.718;2023-05-19T01:47:50;2.40;;;2.03;;
13927;SDS011;7036;50.834;4.718;2023-05-19T01:50:17;2.75;;;2.30;;
13927;SDS011;7036;50.834;4.718;2023-05-19T01:52:45;2.75;;;2.33;;
13927;SDS011;7036;50.834;4.718;2023-05-19T01:55:12;4.05;;;2.45;;
13927;SDS011;7036;50.834;4.718;2023-05-19T02:00:15;3.47;;;2.35;;
13927;SDS011;7036;50.834;4.718;2023-05-19T02:02:48;4.38;;;2.47;;
13927;SDS011;7036;50.834;4.718;2023-05-19T02:05:25;3.60;;;2.40;;
13927;SDS011;7036;50.834;4.718;2023-05-19T02:08:05;2.78;;;2.20;;
13927;SDS011;7036;50.834;4.718;2023-05-19T02:10:13;2.67;;;2.17;;
13927;SDS011;7036;50.834;4.718;2023-05-19T02:12:38;2.78;;;2.10;;
13927;SDS011;7036;50.834;4.718;2023-05-19T02:15:10;3.53;;;2.45;;
13927;SDS011;7036;50.834;4.718;2023-05-19T02:17:39;2.28;;;2.05;;
13927;SDS011;7036;50.834;4.718;2023-05-19T02:20:06;2.30;;;2.10;;
13927;SDS011;7036;50.834;4.718;2023-05-19T02:22:33;2.83;;;2.47;;
13927;SDS011;7036;50.834;4.718;2023-05-19T02:25:00;2.75;;;2.22;;
13927;SDS011;7036;50.834;4.718;2023-05-19T02:27:28;5.38;;;2.38;;
13927;SDS011;7036;50.834;4.718;2023-05-19T02:29:56;2.50;;;2.30;;
13927;SDS011;7036;50.834;4.718;2023-05-19T02:32:24;2.55;;;2.33;;
13927;SDS011;7036;50.834;4.718;2023-05-19T02:34:51;3.38;;;2.50;;
13927;SDS011;7036;50.834;4.718;2023-05-19T02:37:19;5.68;;;2.58;;
13927;SDS011;7036;50.834;4.718;2023-05-19T02:39:46;3.47;;;2.30;;
13927;SDS011;7036;50.834;4.718;2023-05-19T02:42:14;4.18;;;2.20;;
13927;SDS011;7036;50.834;4.718;2023-05-19T02:44:42;4.07;;;2.35;;
13927;SDS011;7036;50.834;4.718;2023-05-19T02:47:10;3.72;;;2.78;;
13927;SDS011;7036;50.834;4.718;2023-05-19T02:49:37;3.78;;;2.20;;
13927;SDS011;7036;50.834;4.718;2023-05-19T02:52:04;4.20;;;1.75;;
13927;SDS011;7036;50.834;4.718;2023-05-19T02:54:32;2.83;;;2.35;;
13927;SDS011;7036;50.834;4.718;2023-05-19T02:56:59;3.17;;;2.25;;
13927;SDS011;7036;50.834;4.718;2023-05-19T02:59:27;2.90;;;2.60;;
13927;SDS011;7036;50.834;4.718;2023-05-19T03:01:57;4.15;;;2.33;;
13927;SDS011;7036;50.834;4.718;2023-05-19T03:04:23;4.55;;;2.83;;
13927;SDS011;7036;50.834;4.718;2023-05-19T03:06:50;3.55;;;2.65;;
13927;SDS011;7036;50.834;4.718;2023-05-19T03:09:19;2.53;;;2.15;;
13927;SDS011;7036;50.834;4.718;2023-05-19T03:11:46;4.50;;;2.95;;
13927;SDS011;7036;50.834;4.718;2023-05-19T03:14:14;5.68;;;3.08;;
13927;SDS011;7036;50.834;4.718;2023-05-19T03:16:42;3.65;;;2.63;;
13927;SDS011;7036;50.834;4.718;2023-05-19T03:19:10;2.55;;;2.33;;
13927;SDS011;7036;50.834;4.718;2023-05-19T03:21:37;4.47;;;2.47;;
13927;SDS011;7036;50.834;4.718;2023-05-19T03:24:05;3.80;;;2.30;;
13927;SDS011;7036;50.834;4.718;2023-05-19T03:26:32;3.83;;;2.70;;
13927;SDS011;7036;50.834;4.718;2023-05-19T03:29:00;2.78;;;2.50;;
13927;SDS011;7036;50.834;4.718;2023-05-19T03:31:28;3.50;;;2.65;;
13927;SDS011;7036;50.834;4.718;2023-05-19T03:33:56;3.35;;;2.63;;
13927;SDS011;7036;50.834;4.718;2023-05-19T03:36:24;3.45;;;2.63;;
13927;SDS011;7036;50.834;4.718;2023-05-19T03:38:53;3.50;;;2.60;;
13927;SDS011;7036;50.834;4.718;2023-05-19T03:41:21;3.78;;;2.60;;
13927;SDS011;7036;50.834;4.718;2023-05-19T03:43:49;3.35;;;2.78;;
13927;SDS011;7036;50.834;4.718;2023-05-19T03:46:17;3.28;;;2.47;;
13927;SDS011;7036;50.834;4.718;2023-05-19T03:48:45;3.20;;;2.60;;
13927;SDS011;7036;50.834;4.718;2023-05-19T03:51:13;5.63;;;2.88;;
13927;SDS011;7036;50.834;4.718;2023-05-19T03:53:40;3.47;;;2.83;;
13927;SDS011;7036;50.834;4.718;2023-05-19T03:56:08;5.22;;;3.00;;
13927;SDS011;7036;50.834;4.718;2023-05-19T03:58:34;4.78;;;2.70;;
13927;SDS011;7036;50.834;4.718;2023-05-19T04:01:02;3.22;;;2.50;;
13927;SDS011;7036;50.834;4.718;2023-05-19T04:03:30;3.65;;;2.78;;
13927;SDS011;7036;50.834;4.718;2023-05-19T04:05:57;4.18;;;2.85;;
13927;SDS011;7036;50.834;4.718;2023-05-19T04:08:25;3.17;;;2.67;;
13927;SDS011;7036;50.834;4.718;2023-05-19T04:10:53;6.07;;;2.80;;
13927;SDS011;7036;50.834;4.718;2023-05-19T04:13:21;4.97;;;2.88;;
13927;SDS011;7036;50.834;4.718;2023-05-19T04:15:49;2.70;;;2.50;;
13927;SDS011;7036;50.834;4.718;2023-05-19T04:18:17;7.88;;;2.95;;
13927;SDS011;7036;50.834;4.718;2023-05-19T04:20:44;2.60;;;2.38;;
13927;SDS011;7036;50.834;4.718;2023-05-19T04:23:12;2.95;;;2.60;;
13927;SDS011;7036;50.834;4.718;2023-05-19T04:25:40;5.47;;;2.90;;
13927;SDS011;7036;50.834;4.718;2023-05-19T04:28:07;4.15;;;2.90;;
13927;SDS011;7036;50.834;4.718;2023-05-19T04:30:34;3.67;;;2.70;;
13927;SDS011;7036;50.834;4.718;2023-05-19T04:33:01;3.15;;;2.88;;
13927;SDS011;7036;50.834;4.718;2023-05-19T04:35:30;3.10;;;2.58;;
13927;SDS011;7036;50.834;4.718;2023-05-19T04:37:59;3.33;;;3.03;;
13927;SDS011;7036;50.834;4.718;2023-05-19T04:40:27;3.88;;;3.22;;
13927;SDS011;7036;50.834;4.718;2023-05-19T04:42:55;2.92;;;2.67;;
13927;SDS011;7036;50.834;4.718;2023-05-19T04:45:23;3.53;;;2.70;;
13927;SDS011;7036;50.834;4.718;2023-05-19T04:47:51;3.20;;;2.58;;
13927;SDS011;7036;50.834;4.718;2023-05-19T04:50:19;3.10;;;2.58;;
13927;SDS011;7036;50.834;4.718;2023-05-19T04:52:46;3.10;;;2.78;;
13927;SDS011;7036;50.834;4.718;2023-05-19T04:55:14;4.05;;;3.08;;
13927;SDS011;7036;50.834;4.718;2023-05-19T04:57:42;3.13;;;2.35;;
13927;SDS011;7036;50.834;4.718;2023-05-19T05:00:10;3.33;;;2.40;;
13927;SDS011;7036;50.834;4.718;2023-05-19T05:02:38;5.60;;;3.42;;
13927;SDS011;7036;50.834;4.718;2023-05-19T05:05:05;7.65;;;4.25;;
13927;SDS011;7036;50.834;4.718;2023-05-19T05:07:33;9.38;;;5.35;;
13927;SDS011;7036;50.834;4.718;2023-05-19T05:10:01;14.07;;;3.88;;
13927;SDS011;7036;50.834;4.718;2023-05-19T05:12:29;12.13;;;4.68;;
13927;SDS011;7036;50.834;4.718;2023-05-19T05:14:57;7.75;;;4.30;;
13927;SDS011;7036;50.834;4.718;2023-05-19T05:17:24;9.13;;;5.15;;
13927;SDS011;7036;50.834;4.718;2023-05-19T05:19:52;6.45;;;5.00;;
13927;SDS011;7036;50.834;4.718;2023-05-19T05:22:20;7.68;;;5.13;;
13927;SDS011;7036;50.834;4.718;2023-05-19T05:24:47;11.77;;;4.97;;
13927;SDS011;7036;50.834;4.718;2023-05-19T05:27:14;5.03;;;3.97;;
13927;SDS011;7036;50.834;4.718;2023-05-19T05:29:42;5.85;;;3.80;;
13927;SDS011;7036;50.834;4.718;2023-05-19T05:32:10;6.30;;;4.03;;
13927;SDS011;7036;50.834;4.718;2023-05-19T05:34:37;7.88;;;3.88;;
13927;SDS011;7036;50.834;4.718;2023-05-19T05:37:06;11.05;;;4.18;;
13927;SDS011;7036;50.834;4.718;2023-05-19T05:39:34;4.93;;;4.07;;
13927;SDS011;7036;50.834;4.718;2023-05-19T05:42:02;4.82;;;3.53;;
13927;SDS011;7036;50.834;4.718;2023-05-19T05:44:30;6.97;;;4.45;;
13927;SDS011;7036;50.834;4.718;2023-05-19T05:46:57;8.57;;;4.57;;
13927;SDS011;7036;50.834;4.718;2023-05-19T05:49:25;10.50;;;3.90;;
13927;SDS011;7036;50.834;4.718;2023-05-19T05:51:52;8.13;;;3.72;;
13927;SDS011;7036;50.834;4.718;2023-05-19T05:54:20;8.82;;;3.92;;
13927;SDS011;7036;50.834;4.718;2023-05-19T05:56:49;7.38;;;3.97;;
13927;SDS011;7036;50.834;4.718;2023-05-19T05:59:16;12.23;;;4.82;;
13927;SDS011;7036;50.834;4.718;2023-05-19T06:01:43;13.18;;;4.93;;
13927;SDS011;7036;50.834;4.718;2023-05-19T06:04:10;18.05;;;4.70;;
13927;SDS011;7036;50.834;4.718;2023-05-19T06:06:37;12.35;;;4.45;;
13927;SDS011;7036;50.834;4.718;2023-05-19T06:09:05;9.75;;;3.97;;
13927;SDS011;7036;50.834;4.718;2023-05-19T06:11:33;10.70;;;4.22;;
13927;SDS011;7036;50.834;4.718;2023-05-19T06:14:02;9.55;;;4.03;;
13927;SDS011;7036;50.834;4.718;2023-05-19T06:16:31;5.28;;;3.90;;
13927;SDS011;7036;50.834;4.718;2023-05-19T06:18:58;9.65;;;4.72;;
13927;SDS011;7036;50.834;4.718;2023-05-19T06:21:25;6.38;;;4.00;;
13927;SDS011;7036;50.834;4.718;2023-05-19T06:23:52;6.97;;;3.80;;
13927;SDS011;7036;50.834;4.718;2023-05-19T06:26:19;8.52;;;3.72;;
13927;SDS011;7036;50.834;4.718;2023-05-19T06:28:47;13.30;;;4.05;;
13927;SDS011;7036;50.834;4.718;2023-05-19T06:31:14;9.05;;;4.22;;
13927;SDS011;7036;50.834;4.718;2023-05-19T06:33:41;14.30;;;4.40;;
13927;SDS011;7036;50.834;4.718;2023-05-19T06:36:09;8.40;;;4.13;;
13927;SDS011;7036;50.834;4.718;2023-05-19T06:38:36;5.60;;;3.78;;
13927;SDS011;7036;50.834;4.718;2023-05-19T06:41:04;7.25;;;4.10;;
13927;SDS011;7036;50.834;4.718;2023-05-19T06:43:31;6.40;;;3.50;;
13927;SDS011;7036;50.834;4.718;2023-05-19T06:45:58;8.13;;;3.85;;
13927;SDS011;7036;50.834;4.718;2023-05-19T06:48:26;9.85;;;4.38;;
13927;SDS011;7036;50.834;4.718;2023-05-19T06:50:54;5.03;;;3.72;;
13927;SDS011;7036;50.834;4.718;2023-05-19T06:53:21;8.82;;;4.20;;
13927;SDS011;7036;50.834;4.718;2023-05-19T06:55:51;7.45;;;3.75;;
13927;SDS011;7036;50.834;4.718;2023-05-19T06:58:17;5.97;;;4.00;;
13927;SDS011;7036;50.834;4.718;2023-05-19T07:00:44;6.30;;;3.50;;
13927;SDS011;7036;50.834;4.718;2023-05-19T07:03:12;7.20;;;3.85;;
13927;SDS011;7036;50.834;4.718;2023-05-19T07:05:40;7.78;;;3.60;;
13927;SDS011;7036;50.834;4.718;2023-05-19T07:08:07;7.28;;;3.30;;
13927;SDS011;7036;50.834;4.718;2023-05-19T07:10:35;6.90;;;3.85;;
13927;SDS011;7036;50.834;4.718;2023-05-19T07:13:03;4.40;;;4.03;;
13927;SDS011;7036;50.834;4.718;2023-05-19T07:15:30;7.28;;;3.50;;
13927;SDS011;7036;50.834;4.718;2023-05-19T07:17:58;6.80;;;3.40;;
13927;SDS011;7036;50.834;4.718;2023-05-19T07:20:25;5.03;;;3.05;;
13927;SDS011;7036;50.834;4.718;2023-05-19T07:22:52;4.72;;;3.22;;
13927;SDS011;7036;50.834;4.718;2023-05-19T07:25:21;5.63;;;4.00;;
13927;SDS011;7036;50.834;4.718;2023-05-19T07:27:49;6.83;;;3.73;;
13927;SDS011;7036;50.834;4.718;2023-05-19T07:30:17;5.40;;;3.47;;
13927;SDS011;7036;50.834;4.718;2023-05-19T07:32:43;4.73;;;3.10;;
13927;SDS011;7036;50.834;4.718;2023-05-19T07:35:11;6.38;;;3.17;;
13927;SDS011;7036;50.834;4.718;2023-05-19T07:37:39;6.07;;;3.08;;
13927;SDS011;7036;50.834;4.718;2023-05-19T07:40:06;4.68;;;3.42;;
13927;SDS011;7036;50.834;4.718;2023-05-19T07:42:33;4.53;;;3.20;;
13927;SDS011;7036;50.834;4.718;2023-05-19T07:45:01;4.22;;;2.85;;
13927;SDS011;7036;50.834;4.718;2023-05-19T07:47:28;4.70;;;3.42;;
13927;SDS011;7036;50.834;4.718;2023-05-19T07:49:56;5.22;;;3.03;;
13927;SDS011;7036;50.834;4.718;2023-05-19T07:52:23;3.92;;;3.13;;
13927;SDS011;7036;50.834;4.718;2023-05-19T07:54:51;5.03;;;3.10;;
13927;SDS011;7036;50.834;4.718;2023-05-19T07:59:49;5.37;;;3.33;;
13927;SDS011;7036;50.834;4.718;2023-05-19T08:02:18;7.35;;;3.15;;
13927;SDS011;7036;50.834;4.718;2023-05-19T08:04:44;5.03;;;3.13;;
13927;SDS011;7036;50.834;4.718;2023-05-19T08:07:13;3.72;;;3.38;;
13927;SDS011;7036;50.834;4.718;2023-05-19T08:09:40;4.17;;;3.00;;
13927;SDS011;7036;50.834;4.718;2023-05-19T08:12:08;6.18;;;3.00;;
13927;SDS011;7036;50.834;4.718;2023-05-19T08:14:35;4.95;;;3.30;;
13927;SDS011;7036;50.834;4.718;2023-05-19T08:17:02;3.33;;;3.00;;
13927;SDS011;7036;50.834;4.718;2023-05-19T08:19:30;4.07;;;2.90;;
13927;SDS011;7036;50.834;4.718;2023-05-19T08:21:58;5.85;;;3.33;;
13927;SDS011;7036;50.834;4.718;2023-05-19T08:24:26;3.65;;;3.35;;
13927;SDS011;7036;50.834;4.718;2023-05-19T08:26:56;3.37;;;2.70;;
13927;SDS011;7036;50.834;4.718;2023-05-19T08:29:24;4.60;;;3.17;;
13927;SDS011;7036;50.834;4.718;2023-05-19T08:31:52;4.25;;;3.38;;
13927;SDS011;7036;50.834;4.718;2023-05-19T08:34:19;5.10;;;2.90;;
13927;SDS011;7036;50.834;4.718;2023-05-19T08:36:47;3.67;;;2.92;;
13927;SDS011;7036;50.834;4.718;2023-05-19T08:39:15;3.35;;;2.72;;
13927;SDS011;7036;50.834;4.718;2023-05-19T08:41:43;4.25;;;3.17;;
13927;SDS011;7036;50.834;4.718;2023-05-19T08:44:11;4.45;;;3.10;;
13927;SDS011;7036;50.834;4.718;2023-05-19T08:46:39;4.40;;;3.03;;
13927;SDS011;7036;50.834;4.718;2023-05-19T08:49:13;4.45;;;2.75;;
13927;SDS011;7036;50.834;4.718;2023-05-19T08:54:29;4.70;;;2.93;;
13927;SDS011;7036;50.834;4.718;2023-05-19T08:56:55;5.03;;;3.17;;
13927;SDS011;7036;50.834;4.718;2023-05-19T08:59:23;3.20;;;2.60;;
13927;SDS011;7036;50.834;4.718;2023-05-19T09:01:50;3.30;;;2.47;;
13927;SDS011;7036;50.834;4.718;2023-05-19T09:04:18;3.83;;;2.70;;
13927;SDS011;7036;50.834;4.718;2023-05-19T09:06:46;5.50;;;2.50;;
13927;SDS011;7036;50.834;4.718;2023-05-19T09:09:14;7.53;;;3.28;;
13927;SDS011;7036;50.834;4.718;2023-05-19T09:11:44;4.05;;;2.50;;
13927;SDS011;7036;50.834;4.718;2023-05-19T09:14:09;3.72;;;2.47;;
13927;SDS011;7036;50.834;4.718;2023-05-19T09:16:36;5.00;;;2.83;;
13927;SDS011;7036;50.834;4.718;2023-05-19T09:19:04;4.55;;;2.58;;
13927;SDS011;7036;50.834;4.718;2023-05-19T09:21:31;4.38;;;2.90;;
13927;SDS011;7036;50.834;4.718;2023-05-19T09:24:06;3.63;;;2.70;;
13927;SDS011;7036;50.834;4.718;2023-05-19T09:26:41;5.57;;;3.27;;
13927;SDS011;7036;50.834;4.718;2023-05-19T09:29:12;4.33;;;2.93;;
13927;SDS011;7036;50.834;4.718;2023-05-19T09:31:45;4.97;;;2.77;;
13927;SDS011;7036;50.834;4.718;2023-05-19T09:34:10;5.17;;;2.70;;
13927;SDS011;7036;50.834;4.718;2023-05-19T09:36:33;5.18;;;2.72;;
13927;SDS011;7036;50.834;4.718;2023-05-19T09:39:01;3.78;;;2.80;;
13927;SDS011;7036;50.834;4.718;2023-05-19T09:41:29;5.60;;;2.30;;
13927;SDS011;7036;50.834;4.718;2023-05-19T09:43:57;5.68;;;2.60;;
13927;SDS011;7036;50.834;4.718;2023-05-19T09:46:25;3.63;;;2.13;;
13927;SDS011;7036;50.834;4.718;2023-05-19T09:48:56;3.67;;;2.55;;
13927;SDS011;7036;50.834;4.718;2023-05-19T09:51:23;4.67;;;2.37;;
13927;SDS011;7036;50.834;4.718;2023-05-19T09:53:51;6.05;;;2.75;;
13927;SDS011;7036;50.834;4.718;2023-05-19T09:56:18;3.42;;;2.50;;
13927;SDS011;7036;50.834;4.718;2023-05-19T09:58:46;5.38;;;2.60;;
13927;SDS011;7036;50.834;4.718;2023-05-19T10:01:14;2.20;;;2.00;;
13927;SDS011;7036;50.834;4.718;2023-05-19T10:03:42;4.70;;;2.78;;
13927;SDS011;7036;50.834;4.718;2023-05-19T10:06:10;4.88;;;2.10;;
13927;SDS011;7036;50.834;4.718;2023-05-19T10:08:38;2.67;;;2.03;;
13927;SDS011;7036;50.834;4.718;2023-05-19T10:11:06;5.28;;;2.92;;
13927;SDS011;7036;50.834;4.718;2023-05-19T10:13:34;9.93;;;3.20;;
13927;SDS011;7036;50.834;4.718;2023-05-19T10:16:02;4.93;;;3.30;;
13927;SDS011;7036;50.834;4.718;2023-05-19T10:18:29;4.38;;;2.70;;
13927;SDS011;7036;50.834;4.718;2023-05-19T10:20:57;4.60;;;3.13;;
13927;SDS011;7036;50.834;4.718;2023-05-19T10:23:25;7.38;;;3.10;;
13927;SDS011;7036;50.834;4.718;2023-05-19T10:25:55;7.30;;;3.20;;
13927;SDS011;7036;50.834;4.718;2023-05-19T10:28:22;5.47;;;2.87;;
13927;SDS011;7036;50.834;4.718;2023-05-19T10:30:49;6.10;;;2.70;;
13927;SDS011;7036;50.834;4.718;2023-05-19T10:33:16;5.57;;;3.10;;
13927;SDS011;7036;50.834;4.718;2023-05-19T10:39:40;7.83;;;3.07;;
13927;SDS011;7036;50.834;4.718;2023-05-19T10:41:39;6.40;;;2.87;;
13927;SDS011;7036;50.834;4.718;2023-05-19T10:47:05;5.00;;;2.37;;
13927;SDS011;7036;50.834;4.718;2023-05-19T10:49:34;5.55;;;2.72;;
13927;SDS011;7036;50.834;4.718;2023-05-19T10:52:01;6.33;;;3.13;;
13927;SDS011;7036;50.834;4.718;2023-05-19T10:54:40;5.13;;;2.83;;
13927;SDS011;7036;50.834;4.718;2023-05-19T10:57:07;4.20;;;2.73;;
13927;SDS011;7036;50.834;4.718;2023-05-19T10:59:35;7.73;;;2.83;;
13927;SDS011;7036;50.834;4.718;2023-05-19T11:02:03;7.75;;;2.67;;
13927;SDS011;7036;50.834;4.718;2023-05-19T11:04:47;6.17;;;2.07;;
13927;SDS011;7036;50.834;4.718;2023-05-19T11:07:16;9.00;;;3.17;;
13927;SDS011;7036;50.834;4.718;2023-05-19T11:09:42;7.13;;;3.00;;
13927;SDS011;7036;50.834;4.718;2023-05-19T11:12:10;7.00;;;2.67;;
13927;SDS011;7036;50.834;4.718;2023-05-19T11:14:37;4.70;;;2.30;;
13927;SDS011;7036;50.834;4.718;2023-05-19T11:17:05;9.38;;;3.28;;
13927;SDS011;7036;50.834;4.718;2023-05-19T11:19:33;3.10;;;2.23;;
13927;SDS011;7036;50.834;4.718;2023-05-19T11:22:08;12.75;;;2.78;;
13927;SDS011;7036;50.834;4.718;2023-05-19T11:24:37;9.10;;;3.38;;
13927;SDS011;7036;50.834;4.718;2023-05-19T11:29:48;10.07;;;3.17;;
13927;SDS011;7036;50.834;4.718;2023-05-19T11:32:15;5.25;;;2.53;;
13927;SDS011;7036;50.834;4.718;2023-05-19T11:34:43;5.88;;;2.75;;
13927;SDS011;7036;50.834;4.718;2023-05-19T11:37:11;9.73;;;2.80;;
13927;SDS011;7036;50.834;4.718;2023-05-19T11:39:39;4.75;;;3.15;;
13927;SDS011;7036;50.834;4.718;2023-05-19T11:42:08;4.93;;;2.70;;
13927;SDS011;7036;50.834;4.718;2023-05-19T11:44:35;7.78;;;2.95;;
13927;SDS011;7036;50.834;4.718;2023-05-19T11:47:03;6.53;;;2.60;;
13927;SDS011;7036;50.834;4.718;2023-05-19T11:49:31;5.60;;;2.95;;
13927;SDS011;7036;50.834;4.718;2023-05-19T11:52:01;5.47;;;2.72;;
13927;SDS011;7036;50.834;4.718;2023-05-19T11:54:31;7.90;;;2.73;;
13927;SDS011;7036;50.834;4.718;2023-05-19T11:57:01;5.07;;;2.43;;
13927;SDS011;7036;50.834;4.718;2023-05-19T11:59:28;5.37;;;3.00;;
13927;SDS011;7036;50.834;4.718;2023-05-19T12:01:55;9.77;;;3.42;;
13927;SDS011;7036;50.834;4.718;2023-05-19T12:04:23;4.55;;;2.50;;
13927;SDS011;7036;50.834;4.718;2023-05-19T12:06:52;8.05;;;2.70;;
13927;SDS011;7036;50.834;4.718;2023-05-19T12:09:21;6.77;;;2.97;;
13927;SDS011;7036;50.834;4.718;2023-05-19T12:11:46;11.50;;;3.05;;
13927;SDS011;7036;50.834;4.718;2023-05-19T12:14:13;6.88;;;2.78;;
13927;SDS011;7036;50.834;4.718;2023-05-19T12:16:40;6.10;;;3.20;;
13927;SDS011;7036;50.834;4.718;2023-05-19T12:19:09;6.22;;;3.00;;
13927;SDS011;7036;50.834;4.718;2023-05-19T12:21:36;8.07;;;2.80;;
13927;SDS011;7036;50.834;4.718;2023-05-19T12:24:03;7.00;;;3.00;;
13927;SDS011;7036;50.834;4.718;2023-05-19T12:26:31;6.45;;;2.63;;
13927;SDS011;7036;50.834;4.718;2023-05-19T12:28:59;4.88;;;2.50;;
13927;SDS011;7036;50.834;4.718;2023-05-19T12:31:26;4.80;;;2.70;;
13927;SDS011;7036;50.834;4.718;2023-05-19T12:33:54;5.28;;;2.58;;
13927;SDS011;7036;50.834;4.718;2023-05-19T12:36:22;7.60;;;2.40;;
13927;SDS011;7036;50.834;4.718;2023-05-19T12:38:53;6.22;;;2.33;;
13927;SDS011;7036;50.834;4.718;2023-05-19T12:41:25;4.53;;;2.30;;
13927;SDS011;7036;50.834;4.718;2023-05-19T12:43:55;7.70;;;3.00;;
13927;SDS011;7036;50.834;4.718;2023-05-19T12:46:22;7.83;;;2.97;;
13927;SDS011;7036;50.834;4.718;2023-05-19T12:48:49;4.07;;;2.20;;
13927;SDS011;7036;50.834;4.718;2023-05-19T12:51:19;10.05;;;2.67;;
13927;SDS011;7036;50.834;4.718;2023-05-19T12:53:45;8.27;;;2.50;;
13927;SDS011;7036;50.834;4.718;2023-05-19T12:56:14;7.38;;;2.55;;
13927;SDS011;7036;50.834;4.718;2023-05-19T12:58:42;4.18;;;2.50;;
13927;SDS011;7036;50.834;4.718;2023-05-19T13:01:15;5.53;;;2.10;;
13927;SDS011;7036;50.834;4.718;2023-05-19T13:03:42;5.30;;;2.23;;
13927;SDS011;7036;50.834;4.718;2023-05-19T13:06:09;5.87;;;2.20;;
13927;SDS011;7036;50.834;4.718;2023-05-19T13:08:36;4.72;;;2.40;;
13927;SDS011;7036;50.834;4.718;2023-05-19T13:11:03;5.85;;;2.55;;
13927;SDS011;7036;50.834;4.718;2023-05-19T13:13:30;2.95;;;2.05;;
13927;SDS011;7036;50.834;4.718;2023-05-19T13:15:58;4.55;;;2.03;;
13927;SDS011;7036;50.834;4.718;2023-05-19T13:18:25;2.97;;;2.03;;
13927;SDS011;7036;50.834;4.718;2023-05-19T13:20:52;6.28;;;2.25;;
13927;SDS011;7036;50.834;4.718;2023-05-19T13:23:19;2.17;;;1.48;;
13927;SDS011;7036;50.834;4.718;2023-05-19T13:25:48;4.97;;;2.72;;
13927;SDS011;7036;50.834;4.718;2023-05-19T13:28:14;8.52;;;2.17;;
13927;SDS011;7036;50.834;4.718;2023-05-19T13:30:42;7.22;;;2.33;;
13927;SDS011;7036;50.834;4.718;2023-05-19T13:33:09;4.30;;;2.05;;
13927;SDS011;7036;50.834;4.718;2023-05-19T13:35:37;4.63;;;2.20;;
13927;SDS011;7036;50.834;4.718;2023-05-19T13:38:05;7.68;;;1.98;;
13927;SDS011;7036;50.834;4.718;2023-05-19T13:40:32;2.80;;;1.88;;
13927;SDS011;7036;50.834;4.718;2023-05-19T13:43:00;5.85;;;2.25;;
13927;SDS011;7036;50.834;4.718;2023-05-19T13:45:28;4.30;;;1.80;;
13927;SDS011;7036;50.834;4.718;2023-05-19T13:47:55;4.80;;;2.17;;
13927;SDS011;7036;50.834;4.718;2023-05-19T13:50:23;2.17;;;1.88;;
13927;SDS011;7036;50.834;4.718;2023-05-19T13:52:51;6.00;;;2.45;;
13927;SDS011;7036;50.834;4.718;2023-05-19T13:55:18;4.80;;;2.58;;
13927;SDS011;7036;50.834;4.718;2023-05-19T13:57:46;3.63;;;2.20;;
13927;SDS011;7036;50.834;4.718;2023-05-19T14:00:13;4.32;;;2.10;;
13927;SDS011;7036;50.834;4.718;2023-05-19T14:02:40;3.90;;;2.10;;
13927;SDS011;7036;50.834;4.718;2023-05-19T14:05:09;4.40;;;2.05;;
13927;SDS011;7036;50.834;4.718;2023-05-19T14:07:36;2.63;;;1.90;;
13927;SDS011;7036;50.834;4.718;2023-05-19T14:10:04;8.00;;;1.98;;
13927;SDS011;7036;50.834;4.718;2023-05-19T14:12:32;3.67;;;2.03;;
13927;SDS011;7036;50.834;4.718;2023-05-19T14:15:01;3.05;;;1.95;;
13927;SDS011;7036;50.834;4.718;2023-05-19T14:17:27;4.47;;;1.90;;
13927;SDS011;7036;50.834;4.718;2023-05-19T14:19:56;3.92;;;1.88;;
13927;SDS011;7036;50.834;4.718;2023-05-19T14:22:23;3.00;;;1.67;;
13927;SDS011;7036;50.834;4.718;2023-05-19T14:24:51;2.53;;;1.65;;
13927;SDS011;7036;50.834;4.718;2023-05-19T14:27:19;3.25;;;1.48;;
13927;SDS011;7036;50.834;4.718;2023-05-19T14:29:47;4.50;;;1.63;;
13927;SDS011;7036;50.834;4.718;2023-05-19T14:32:13;5.50;;;1.67;;
13927;SDS011;7036;50.834;4.718;2023-05-19T14:34:41;8.02;;;1.88;;
13927;SDS011;7036;50.834;4.718;2023-05-19T14:37:09;6.00;;;2.03;;
13927;SDS011;7036;50.834;4.718;2023-05-19T14:39:37;6.15;;;2.38;;
13927;SDS011;7036;50.834;4.718;2023-05-19T14:42:05;3.50;;;1.60;;
13927;SDS011;7036;50.834;4.718;2023-05-19T14:44:33;9.13;;;2.00;;
13927;SDS011;7036;50.834;4.718;2023-05-19T14:47:01;7.72;;;2.00;;
13927;SDS011;7036;50.834;4.718;2023-05-19T14:49:29;3.97;;;1.70;;
13927;SDS011;7036;50.834;4.718;2023-05-19T14:51:55;8.05;;;2.17;;
13927;SDS011;7036;50.834;4.718;2023-05-19T14:54:23;2.85;;;1.95;;
13927;SDS011;7036;50.834;4.718;2023-05-19T14:56:51;6.95;;;1.85;;
13927;SDS011;7036;50.834;4.718;2023-05-19T14:59:19;1.80;;;1.50;;
13927;SDS011;7036;50.834;4.718;2023-05-19T15:01:46;2.53;;;1.80;;
13927;SDS011;7036;50.834;4.718;2023-05-19T15:04:14;5.22;;;2.08;;
13927;SDS011;7036;50.834;4.718;2023-05-19T15:06:43;8.57;;;3.05;;
13927;SDS011;7036;50.834;4.718;2023-05-19T15:09:10;6.07;;;2.37;;
13927;SDS011;7036;50.834;4.718;2023-05-19T15:11:38;6.13;;;2.53;;
13927;SDS011;7036;50.834;4.718;2023-05-19T15:14:06;7.72;;;2.63;;
13927;SDS011;7036;50.834;4.718;2023-05-19T15:16:35;6.32;;;2.47;;
13927;SDS011;7036;50.834;4.718;2023-05-19T15:19:02;5.73;;;2.37;;
13927;SDS011;7036;50.834;4.718;2023-05-19T15:21:29;4.63;;;2.45;;
13927;SDS011;7036;50.834;4.718;2023-05-19T15:23:56;10.32;;;2.55;;
13927;SDS011;7036;50.834;4.718;2023-05-19T15:26:23;7.22;;;2.75;;
13927;SDS011;7036;50.834;4.718;2023-05-19T15:28:51;10.95;;;3.30;;
13927;SDS011;7036;50.834;4.718;2023-05-19T15:31:18;4.85;;;2.33;;